sensor_id;sensor_type;location;lat;lon;timestamp;temperature;humidity
429;DHT22;201;48.758;9.290;2022-09-28T18:36:32;7.80;15.80
429;DHT22;201;48.758;9.290;2022-09-28T18:39:01;7.70;16.70
429;DHT22;201;48.758;9.290;2022-09-28T18:41:27;7.80;17.30
429;DHT22;201;48.758;9.290;2022-09-28T18:43:53;7.80;17.30
429;DHT22;201;48.758;9.290;2022-09-28T18:46:28;7.90;18.30
429;DHT22;201;48.758;9.290;2022-09-28T18:48:54;7.90;18.80
429;DHT22;201;48.758;9.290;2022-09-28T18:51:20;8.00;19.00
429;DHT22;201;48.758;9.290;2022-09-28T18:53:46;8.00;18.70
429;DHT22;201;48.758;9.290;2022-09-28T18:56:14;8.10;18.70
429;DHT22;201;48.758;9.290;2022-09-28T18:58:41;8.20;18.40
429;DHT22;201;48.758;9.290;2022-09-28T19:01:13;8.30;17.70
429;DHT22;201;48.758;9.290;2022-09-28T19:03:39;8.30;17.60
429;DHT22;201;48.758;9.290;2022-09-28T19:06:12;8.40;17.70
429;DHT22;201;48.758;9.290;2022-09-28T19:08:41;8.50;17.40
429;DHT22;201;48.758;9.290;2022-09-28T19:11:12;8.50;16.90
429;DHT22;201;48.758;9.290;2022-09-28T19:13:38;8.60;16.80
429;DHT22;201;48.758;9.290;2022-09-28T19:16:19;8.60;16.50
429;DHT22;201;48.758;9.290;2022-09-28T19:18:46;8.60;16.20
429;DHT22;201;48.758;9.290;2022-09-28T19:21:13;8.50;15.90
429;DHT22;201;48.758;9.290;2022-09-28T19:23:40;8.60;15.80
429;DHT22;201;48.758;9.290;2022-09-28T19:26:14;8.60;15.80
429;DHT22;201;48.758;9.290;2022-09-28T19:28:40;8.60;15.70
429;DHT22;201;48.758;9.290;2022-09-28T19:31:06;8.60;15.50
429;DHT22;201;48.758;9.290;2022-09-28T19:33:36;8.70;15.30
429;DHT22;201;48.758;9.290;2022-09-28T19:36:07;8.70;14.90
429;DHT22;201;48.758;9.290;2022-09-28T19:38:35;8.70;14.70
429;DHT22;201;48.758;9.290;2022-09-28T19:41:01;8.60;14.50
429;DHT22;201;48.758;9.290;2022-09-28T19:43:27;8.60;14.40
429;DHT22;201;48.758;9.290;2022-09-28T19:45:53;8.60;14.40
429;DHT22;201;48.758;9.290;2022-09-28T19:48:30;8.60;14.50
429;DHT22;201;48.758;9.290;2022-09-28T19:50:58;8.60;14.20
429;DHT22;201;48.758;9.290;2022-09-28T19:53:25;8.60;13.80
429;DHT22;201;48.758;9.290;2022-09-28T19:55:52;8.60;14.00
429;DHT22;201;48.758;9.290;2022-09-28T19:58:19;8.60;13.80
429;DHT22;201;48.758;9.290;2022-09-28T20:00:45;8.60;13.60
429;DHT22;201;48.758;9.290;2022-09-28T20:03:10;8.50;13.70
429;DHT22;201;48.758;9.290;2022-09-28T20:05:36;8.50;13.70
429;DHT22;201;48.758;9.290;2022-09-28T20:08:03;8.50;13.60
429;DHT22;201;48.758;9.290;2022-09-28T20:10:28;8.50;13.80
429;DHT22;201;48.758;9.290;2022-09-28T20:12:54;8.50;14.00
429;DHT22;201;48.758;9.290;2022-09-28T20:15:20;8.50;14.00
429;DHT22;201;48.758;9.290;2022-09-28T20:17:47;8.40;14.10
429;DHT22;201;48.758;9.290;2022-09-28T20:20:13;8.40;14.20
429;DHT22;201;48.758;9.290;2022-09-28T20:22:39;8.40;14.20
429;DHT22;201;48.758;9.290;2022-09-28T20:25:06;8.40;14.00
429;DHT22;201;48.758;9.290;2022-09-28T20:27:32;8.40;14.10
429;DHT22;201;48.758;9.290;2022-09-28T20:29:57;8.40;14.10
429;DHT22;201;48.758;9.290;2022-09-28T20:32:24;8.40;14.20
429;DHT22;201;48.758;9.290;2022-09-28T20:34:49;8.40;14.20
429;DHT22;201;48.758;9.290;2022-09-28T20:37:15;8.40;14.20
429;DHT22;201;48.758;9.290;2022-09-28T20:39:42;8.30;14.30
429;DHT22;201;48.758;9.290;2022-09-28T20:42:07;8.40;14.30
429;DHT22;201;48.758;9.290;2022-09-28T20:44:33;8.40;14.40
429;DHT22;201;48.758;9.290;2022-09-28T20:46:59;8.40;14.40
429;DHT22;201;48.758;9.290;2022-09-28T20:49:25;8.40;14.50
429;DHT22;201;48.758;9.290;2022-09-28T20:51:52;8.40;14.40
429;DHT22;201;48.758;9.290;2022-09-28T20:54:19;8.40;14.30
429;DHT22;201;48.758;9.290;2022-09-28T20:56:45;8.40;13.90
429;DHT22;201;48.758;9.290;2022-09-28T20:59:12;8.40;13.90
429;DHT22;201;48.758;9.290;2022-09-28T21:01:38;8.40;13.80
429;DHT22;201;48.758;9.290;2022-09-28T21:04:05;8.40;13.80
429;DHT22;201;48.758;9.290;2022-09-28T21:06:33;8.30;13.80
429;DHT22;201;48.758;9.290;2022-09-28T21:08:59;8.30;14.10
429;DHT22;201;48.758;9.290;2022-09-28T21:11:26;8.40;13.80
429;DHT22;201;48.758;9.290;2022-09-28T21:13:54;8.40;13.90
429;DHT22;201;48.758;9.290;2022-09-28T21:16:19;8.40;13.80
429;DHT22;201;48.758;9.290;2022-09-28T21:18:46;8.40;13.50
429;DHT22;201;48.758;9.290;2022-09-28T21:21:13;8.50;13.50
429;DHT22;201;48.758;9.290;2022-09-28T21:23:39;8.50;13.30
429;DHT22;201;48.758;9.290;2022-09-28T21:28:30;8.50;13.00
429;DHT22;201;48.758;9.290;2022-09-28T21:30:56;8.50;12.80
429;DHT22;201;48.758;9.290;2022-09-28T21:33:22;8.50;12.70
429;DHT22;201;48.758;9.290;2022-09-28T21:35:48;8.50;12.50
429;DHT22;201;48.758;9.290;2022-09-28T21:38:13;8.60;12.30
429;DHT22;201;48.758;9.290;2022-09-28T21:40:39;8.60;12.70
429;DHT22;201;48.758;9.290;2022-09-28T21:43:05;8.50;11.30
429;DHT22;201;48.758;9.290;2022-09-28T21:45:31;8.60;11.40
429;DHT22;201;48.758;9.290;2022-09-28T21:47:57;8.50;11.40
429;DHT22;201;48.758;9.290;2022-09-28T21:50:24;8.50;11.30
429;DHT22;201;48.758;9.290;2022-09-28T21:52:51;8.50;11.50
429;DHT22;201;48.758;9.290;2022-09-28T21:55:18;8.40;11.70
429;DHT22;201;48.758;9.290;2022-09-28T21:57:45;8.40;11.90
429;DHT22;201;48.758;9.290;2022-09-28T22:00:15;8.30;12.20
429;DHT22;201;48.758;9.290;2022-09-28T22:02:42;8.30;12.60
429;DHT22;201;48.758;9.290;2022-09-28T22:05:08;8.20;12.50
429;DHT22;201;48.758;9.290;2022-09-28T22:07:35;8.10;12.80
429;DHT22;201;48.758;9.290;2022-09-28T22:10:01;8.10;13.00
429;DHT22;201;48.758;9.290;2022-09-28T22:12:28;8.10;12.90
429;DHT22;201;48.758;9.290;2022-09-28T22:14:54;8.20;13.20
429;DHT22;201;48.758;9.290;2022-09-28T22:17:20;8.10;12.90
429;DHT22;201;48.758;9.290;2022-09-28T22:19:45;8.10;13.00
429;DHT22;201;48.758;9.290;2022-09-28T22:22:11;8.00;13.00
429;DHT22;201;48.758;9.290;2022-09-28T22:24:36;8.00;13.20
429;DHT22;201;48.758;9.290;2022-09-28T22:27:02;7.90;13.20
429;DHT22;201;48.758;9.290;2022-09-28T22:29:28;7.90;13.50
429;DHT22;201;48.758;9.290;2022-09-28T22:31:53;7.80;13.70
429;DHT22;201;48.758;9.290;2022-09-28T22:34:29;7.80;14.00
429;DHT22;201;48.758;9.290;2022-09-28T22:36:57;7.80;14.00
429;DHT22;201;48.758;9.290;2022-09-28T22:39:23;7.70;14.30
429;DHT22;201;48.758;9.290;2022-09-28T22:41:48;7.60;14.60
429;DHT22;201;48.758;9.290;2022-09-28T22:44:14;7.60;14.80
429;DHT22;201;48.758;9.290;2022-09-28T22:46:39;7.50;14.80
429;DHT22;201;48.758;9.290;2022-09-28T22:49:05;7.50;15.20
429;DHT22;201;48.758;9.290;2022-09-28T22:51:30;7.50;15.40
429;DHT22;201;48.758;9.290;2022-09-28T22:53:56;7.50;15.50
429;DHT22;201;48.758;9.290;2022-09-28T22:56:22;7.60;15.50
429;DHT22;201;48.758;9.290;2022-09-28T22:58:48;7.50;15.30
429;DHT22;201;48.758;9.290;2022-09-28T23:01:16;7.50;15.40
429;DHT22;201;48.758;9.290;2022-09-28T23:03:42;7.50;15.50
429;DHT22;201;48.758;9.290;2022-09-28T23:06:10;7.40;15.60
429;DHT22;201;48.758;9.290;2022-09-28T23:08:36;7.40;15.80
429;DHT22;201;48.758;9.290;2022-09-28T23:11:02;7.40;16.10
429;DHT22;201;48.758;9.290;2022-09-28T23:13:27;7.40;16.30
429;DHT22;201;48.758;9.290;2022-09-28T23:16:10;7.40;17.10
429;DHT22;201;48.758;9.290;2022-09-28T23:18:37;7.30;16.90
429;DHT22;201;48.758;9.290;2022-09-28T23:21:08;7.30;17.00
429;DHT22;201;48.758;9.290;2022-09-28T23:23:34;7.40;17.00
429;DHT22;201;48.758;9.290;2022-09-28T23:26:12;7.40;17.00
429;DHT22;201;48.758;9.290;2022-09-28T23:28:38;7.30;16.90
429;DHT22;201;48.758;9.290;2022-09-28T23:31:15;7.30;17.00
429;DHT22;201;48.758;9.290;2022-09-28T23:33:40;7.30;16.90
429;DHT22;201;48.758;9.290;2022-09-28T23:36:07;7.30;16.90
429;DHT22;201;48.758;9.290;2022-09-28T23:38:32;7.30;17.00
429;DHT22;201;48.758;9.290;2022-09-28T23:40:58;7.20;17.30
429;DHT22;201;48.758;9.290;2022-09-28T23:43:24;7.20;17.60
429;DHT22;201;48.758;9.290;2022-09-28T23:45:49;7.20;17.70
429;DHT22;201;48.758;9.290;2022-09-28T23:48:14;7.30;17.90
429;DHT22;201;48.758;9.290;2022-09-28T23:50:44;7.30;17.90
429;DHT22;201;48.758;9.290;2022-09-28T23:53:11;7.30;17.50
429;DHT22;201;48.758;9.290;2022-09-28T23:55:37;7.30;17.50
429;DHT22;201;48.758;9.290;2022-09-28T23:58:03;7.30;17.60
